Time;durP1;ratioP1;P1;durP2;ratioP2;P2;SDS_P1;SDS_P2;PMS_P1;PMS_P2;Temp;Humidity;BMP_temperature;BMP_pressure;BME280_temperature;BME280_humidity;BME280_pressure;Samples;Min_cycle;Max_cycle;Signal;HPM_P1;HPM_P2
2021/12/28 00:01:08;;;;;;;;;12.00;10.00;;;;;-144.69;100.00;61360.22;6255865;22;8750;-73
2021/12/28 00:03:35;;;;;;;;;7.50;6.50;;;;;-144.69;100.00;61360.22;6256781;22;9708;-73
2021/12/28 00:06:00;;;;;;;;;7.00;6.00;;;;;-144.69;100.00;61360.22;6254767;22;8863;-73
2021/12/28 00:08:26;;;;;;;;;12.00;9.00;;;;;-144.69;100.00;61360.22;6255937;22;8919;-73
2021/12/28 00:10:52;;;;;;;;;10.00;7.67;;;;;-144.69;100.00;61360.22;6255902;22;8777;-73
2021/12/28 00:13:18;;;;;;;;;6.75;6.75;;;;;-144.69;100.00;61360.22;6231534;22;9516;-73
2021/12/28 00:15:50;;;;;;;;;9.33;8.00;;;;;-144.69;100.00;61360.22;6233444;22;8754;-74
2021/12/28 00:18:16;;;;;;;;;7.50;6.00;;;;;-144.69;100.00;61360.22;6262099;22;8729;-73
2021/12/28 00:20:46;;;;;;;;;14.25;7.75;;;;;-144.69;100.00;61360.22;6256077;22;8762;-73
2021/12/28 00:23:18;;;;;;;;;10.75;5.75;;;;;-144.69;100.00;61360.22;6256496;22;8730;-73
2021/12/28 00:25:50;;;;;;;;;10.25;7.50;;;;;-144.69;100.00;61360.22;6256104;22;8762;-73
2021/12/28 00:28:16;;;;;;;;;11.75;9.00;;;;;-144.69;100.00;61360.22;6256645;22;8750;-73
2021/12/28 00:30:42;;;;;;;;;8.00;5.25;;;;;-144.69;100.00;61360.22;6256438;22;8746;-73
2021/12/28 00:33:08;;;;;;;;;9.00;6.75;;;;;-144.69;100.00;61360.22;6255624;22;8739;-71
2021/12/28 00:35:37;;;;;;;;;8.50;6.00;;;;;-144.69;100.00;61360.22;6256336;22;8847;-71
2021/12/28 00:38:04;;;;;;;;;8.00;6.00;;;;;-144.69;100.00;61360.22;6256449;22;8770;-73
2021/12/28 00:40:32;;;;;;;;;8.00;5.00;;;;;-144.69;100.00;61360.22;6255758;22;8754;-73
2021/12/28 00:42:58;;;;;;;;;11.00;6.00;;;;;-144.69;100.00;61360.22;6228640;22;8761;-73
2021/12/28 00:45:23;;;;;;;;;11.00;5.75;;;;;-144.69;100.00;61360.22;6256364;22;8750;-73
2021/12/28 00:47:49;;;;;;;;;10.33;7.00;;;;;-144.69;100.00;61360.22;6256312;22;8789;-74
2021/12/28 00:50:17;;;;;;;;;10.50;9.00;;;;;-144.69;100.00;61360.22;6256468;22;8766;-74
2021/12/28 00:52:44;;;;;;;;;8.25;5.50;;;;;-144.69;100.00;61360.22;6255615;22;8832;-73
2021/12/28 00:55:12;;;;;;;;;7.50;4.00;;;;;-144.69;100.00;61360.22;6255627;22;9378;-74
2021/12/28 00:57:37;;;;;;;;;6.25;4.75;;;;;-144.69;100.00;61360.22;6256148;22;8856;-71
2021/12/28 01:00:06;;;;;;;;;10.00;7.00;;;;;-144.69;100.00;61360.22;6255780;22;8789;-74
2021/12/28 01:02:31;;;;;;;;;8.25;5.00;;;;;-144.69;100.00;61360.22;6256792;22;8821;-73
2021/12/28 01:04:57;;;;;;;;;10.00;7.33;;;;;-144.69;100.00;61360.22;6257464;22;8853;-72
2021/12/28 01:07:22;;;;;;;;;5.00;4.33;;;;;-144.69;100.00;61360.22;6257441;22;8754;-74
2021/12/28 01:09:47;;;;;;;;;5.00;3.67;;;;;-144.69;100.00;61360.22;6257396;22;8766;-74
2021/12/28 01:12:13;;;;;;;;;7.00;5.33;;;;;-144.69;100.00;61360.22;6257037;22;8766;-76
2021/12/28 06:34:25;;;;;;;;;3.20;3.20;;;;;-144.69;100.00;61360.22;6153215;22;1143089;-76
2021/12/28 06:36:51;;;;;;;;;3.00;3.00;;;;;-144.69;100.00;61360.22;6287822;22;8771;-76
2021/12/28 06:39:16;;;;;;;;;9.67;6.00;;;;;-144.69;100.00;61360.22;6289878;22;8818;-76
2021/12/28 06:41:42;;;;;;;;;5.00;3.67;;;;;-144.69;100.00;61360.22;6260295;22;9041;-74
2021/12/28 06:44:09;;;;;;;;;2.00;2.00;;;;;-144.69;100.00;61360.22;6288068;22;8752;-74
2021/12/28 06:46:36;;;;;;;;;3.75;2.50;;;;;-144.69;100.00;61360.22;6287929;22;8751;-76
2021/12/28 06:49:03;;;;;;;;;2.00;2.00;;;;;-144.69;100.00;61360.22;6287610;22;8716;-79
2021/12/28 06:51:28;;;;;;;;;3.00;3.00;;;;;-144.69;100.00;61360.22;6287583;22;8852;-74
2021/12/28 06:53:54;;;;;;;;;1.00;0.00;;;;;-144.69;100.00;61360.22;6287978;22;8740;-77
2021/12/28 06:56:20;;;;;;;;;2.00;2.00;;;;;-144.69;100.00;61360.22;6287855;22;9490;-78
2021/12/28 06:58:45;;;;;;;;;0.00;0.00;;;;;-144.69;100.00;61360.22;6287243;22;8829;-78
2021/12/28 07:01:11;;;;;;;;;0.00;0.00;;;;;-144.69;100.00;61360.22;6287907;22;8755;-73
2021/12/28 07:03:37;;;;;;;;;0.00;0.00;;;;;-144.69;100.00;61360.22;6287513;22;8743;-73
2021/12/28 07:06:02;;;;;;;;;0.00;0.00;;;;;-144.69;100.00;61360.22;6260125;22;8763;-75
2021/12/28 07:08:28;;;;;;;;;0.67;0.67;;;;;-144.69;100.00;61360.22;6287853;22;8822;-74
2021/12/28 07:10:54;;;;;;;;;1.00;0.00;;;;;-144.69;100.00;61360.22;6289213;22;8759;-74
2021/12/28 07:13:20;;;;;;;;;2.33;0.00;;;;;-144.69;100.00;61360.22;6287850;22;8744;-74
2021/12/28 07:15:45;;;;;;;;;0.00;0.00;;;;;-144.69;100.00;61360.22;6287489;22;8780;-76
2021/12/28 07:18:11;;;;;;;;;2.00;0.00;;;;;-144.69;100.00;61360.22;6287559;22;8747;-74
2021/12/28 07:20:36;;;;;;;;;1.00;1.00;;;;;-144.69;100.00;61360.22;6286817;22;8861;-80
2021/12/28 07:23:02;;;;;;;;;2.00;1.00;;;;;-144.69;100.00;61360.22;6259771;22;9124;-72
2021/12/28 07:25:29;;;;;;;;;0.00;0.00;;;;;-144.69;100.00;61360.22;6287675;22;8759;-75
2021/12/28 07:27:54;;;;;;;;;0.00;0.00;;;;;-144.69;100.00;61360.22;6287908;22;8740;-75
2021/12/28 07:30:20;;;;;;;;;0.00;0.00;;;;;-144.69;100.00;61360.22;6287682;22;8732;-74
2021/12/28 07:32:45;;;;;;;;;1.00;0.00;;;;;-144.69;100.00;61360.22;6287536;22;8739;-73
2021/12/28 07:35:11;;;;;;;;;2.00;0.00;;;;;-144.69;100.00;61360.22;6286871;22;8795;-74
2021/12/28 07:37:37;;;;;;;;;0.00;0.00;;;;;-144.69;100.00;61360.22;6287545;22;8837;-74
2021/12/28 07:40:04;;;;;;;;;0.00;0.00;;;;;-144.69;100.00;61360.22;6288566;22;8755;-73
2021/12/28 07:42:30;;;;;;;;;1.00;0.00;;;;;-144.69;100.00;61360.22;6287825;22;8825;-75
2021/12/28 07:44:55;;;;;;;;;2.67;0.00;;;;;-144.69;100.00;61360.22;6286922;22;8779;-75
2021/12/28 07:47:21;;;;;;;;;0.00;0.00;;;;;-144.69;100.00;61360.22;6286869;22;8735;-76
2021/12/28 07:49:46;;;;;;;;;0.00;0.00;;;;;-144.69;100.00;61360.22;6287258;22;8785;-73
2021/12/28 07:52:11;;;;;;;;;3.33;1.00;;;;;-144.69;100.00;61360.22;6287369;22;8736;-78
2021/12/28 07:54:37;;;;;;;;;2.00;0.00;;;;;-144.69;100.00;61360.22;6287615;22;8767;-78
2021/12/28 07:57:03;;;;;;;;;1.33;0.67;;;;;-144.69;100.00;61360.22;6287809;22;8764;-80
2021/12/28 07:59:28;;;;;;;;;0.00;0.00;;;;;-144.69;100.00;61360.22;6286590;22;8724;-76
2021/12/28 08:01:53;;;;;;;;;1.00;0.00;;;;;-144.69;100.00;61360.22;6287307;22;10495;-79
2021/12/28 08:04:19;;;;;;;;;3.00;1.00;;;;;-144.69;100.00;61360.22;6287445;22;8751;-79
2021/12/28 08:06:45;;;;;;;;;0.75;0.75;;;;;-144.69;100.00;61360.22;6287346;22;9327;-75
2021/12/28 08:09:10;;;;;;;;;4.33;2.00;;;;;-144.69;100.00;61360.22;6259239;22;8834;-78
2021/12/28 08:11:36;;;;;;;;;0.67;0.67;;;;;-144.69;100.00;61360.22;6287604;22;8776;-77
2021/12/28 08:14:02;;;;;;;;;1.00;1.00;;;;;-144.69;100.00;61360.22;6287497;22;8798;-78
2021/12/28 08:16:28;;;;;;;;;1.00;1.00;;;;;-144.69;100.00;61360.22;6287367;22;8909;-78
2021/12/28 08:18:53;;;;;;;;;1.00;0.67;;;;;-144.69;100.00;61360.22;6286471;22;8849;-78
2021/12/28 08:21:19;;;;;;;;;2.00;1.00;;;;;-144.69;100.00;61360.22;6287163;22;8751;-77
2021/12/28 08:23:44;;;;;;;;;2.00;2.00;;;;;-144.69;100.00;61360.22;6260140;22;8829;-78
2021/12/28 08:26:10;;;;;;;;;3.67;2.00;;;;;-144.69;100.00;61360.22;6286644;22;8752;-77
2021/12/28 08:28:36;;;;;;;;;2.00;1.00;;;;;-144.69;100.00;61360.22;6286553;22;8759;-76
2021/12/28 08:31:01;;;;;;;;;1.33;1.33;;;;;-144.69;100.00;61360.22;6287580;22;8751;-76
2021/12/28 08:33:28;;;;;;;;;2.33;0.00;;;;;-144.69;100.00;61360.22;6287217;22;8802;-76
2021/12/28 08:35:54;;;;;;;;;1.00;1.00;;;;;-144.69;100.00;61360.22;6286598;22;8786;-75
2021/12/28 08:38:20;;;;;;;;;3.25;0.75;;;;;-144.69;100.00;61360.22;6287198;22;8743;-76
2021/12/28 08:40:46;;;;;;;;;2.00;1.00;;;;;-144.69;100.00;61360.22;6259250;22;8767;-78
2021/12/28 08:43:12;;;;;;;;;2.00;0.00;;;;;-144.69;100.00;61360.22;6284911;22;8806;-79
2021/12/28 08:45:40;;;;;;;;;1.00;1.00;;;;;-144.69;100.00;61360.22;6287341;22;8736;-77
2021/12/28 08:48:06;;;;;;;;;2.50;0.75;;;;;-144.69;100.00;61360.22;6286651;22;8723;-76
2021/12/28 08:50:32;;;;;;;;;3.50;1.75;;;;;-144.69;100.00;61360.22;6259272;22;8900;-77
2021/12/28 08:52:58;;;;;;;;;0.25;0.25;;;;;-144.69;100.00;61360.22;6255747;22;8849;-77
2021/12/28 08:55:24;;;;;;;;;1.25;1.00;;;;;-144.69;100.00;61360.22;6256077;22;8792;-77
2021/12/28 08:57:51;;;;;;;;;2.67;1.67;;;;;-144.69;100.00;61360.22;6256092;22;8761;-77
2021/12/28 09:00:21;;;;;;;;;2.25;1.00;;;;;-144.69;100.00;61360.22;6255519;22;8730;-77
2021/12/28 09:02:46;;;;;;;;;2.00;2.00;;;;;-144.69;100.00;61360.22;6256231;22;8727;-76
2021/12/28 09:05:12;;;;;;;;;0.00;0.00;;;;;-144.69;100.00;61360.22;6255489;22;8812;-78
2021/12/28 09:07:38;;;;;;;;;3.33;2.00;;;;;-144.69;100.00;61360.22;6255895;22;8734;-77
2021/12/28 09:10:05;;;;;;;;;1.00;1.00;;;;;-144.69;100.00;61360.22;6256018;22;8773;-76
2021/12/28 09:12:30;;;;;;;;;1.50;1.50;;;;;-144.69;100.00;61360.22;6259869;22;8798;-76
2021/12/28 09:14:56;;;;;;;;;2.00;1.00;;;;;-144.69;100.00;61360.22;6286700;22;8730;-78
2021/12/28 09:17:22;;;;;;;;;0.00;0.00;;;;;-144.69;100.00;61360.22;6286183;22;8802;-76
2021/12/28 09:19:47;;;;;;;;;1.75;1.75;;;;;-144.69;100.00;61360.22;6286724;22;8742;-76
2021/12/28 09:22:13;;;;;;;;;1.00;1.00;;;;;-144.69;100.00;61360.22;6286860;22;8835;-77
2021/12/28 09:24:38;;;;;;;;;2.00;1.00;;;;;-144.69;100.00;61360.22;6288157;22;8746;-75
2021/12/28 09:27:04;;;;;;;;;7.00;2.00;;;;;-144.69;100.00;61360.22;6288321;22;9591;-76
2021/12/28 09:29:31;;;;;;;;;7.67;3.00;;;;;-144.69;100.00;61360.22;6288295;22;8735;-77
2021/12/28 09:31:58;;;;;;;;;5.50;5.00;;;;;-144.69;100.00;61360.22;6287075;22;11454;-74
2021/12/28 09:34:24;;;;;;;;;9.50;4.00;;;;;-144.69;100.00;61360.22;6287152;22;8719;-74
2021/12/28 09:36:50;;;;;;;;;4.75;4.00;;;;;-144.69;100.00;61360.22;6285275;22;8784;-74
2021/12/28 09:39:15;;;;;;;;;2.00;1.00;;;;;-144.69;100.00;61360.22;6287844;22;8796;-73
2021/12/28 09:41:41;;;;;;;;;7.33;4.33;;;;;-144.69;100.00;61360.22;6288018;22;8879;-78
2021/12/28 09:44:06;;;;;;;;;14.00;9.00;;;;;-144.69;100.00;61360.22;6260115;22;8804;-78
2021/12/28 09:46:32;;;;;;;;;10.00;4.00;;;;;-144.69;100.00;61360.22;6290240;22;8804;-79
2021/12/28 09:48:58;;;;;;;;;12.67;9.33;;;;;-144.69;100.00;61360.22;6290471;22;8758;-76
2021/12/28 09:51:23;;;;;;;;;13.00;9.33;;;;;-144.69;100.00;61360.22;6288550;22;8746;-77
2021/12/28 09:53:51;;;;;;;;;13.67;9.00;;;;;-144.69;100.00;61360.22;6286084;22;8755;-81
2021/12/28 09:56:17;;;;;;;;;13.25;9.00;;;;;-144.69;100.00;61360.22;6285920;22;9528;-78
2021/12/28 09:58:42;;;;;;;;;17.67;7.33;;;;;-144.69;100.00;61360.22;6287431;22;8757;-77
2021/12/28 10:01:09;;;;;;;;;8.00;4.00;;;;;-144.69;100.00;61360.22;6287641;22;8746;-77
2021/12/28 10:03:35;;;;;;;;;4.50;4.00;;;;;-144.69;100.00;61360.22;6288236;22;8727;-79
2021/12/28 10:06:16;;;;;;;;;7.00;5.50;;;;;-144.69;100.00;61360.22;6288116;22;8773;-79
2021/12/28 10:08:42;;;;;;;;;6.25;3.50;;;;;-144.69;100.00;61360.22;6288003;22;8897;-80
2021/12/28 10:11:08;;;;;;;;;9.75;6.00;;;;;-144.69;100.00;61360.22;6288638;22;8758;-76
2021/12/28 10:13:33;;;;;;;;;11.00;8.00;;;;;-144.69;100.00;61360.22;6260424;22;9240;-80
2021/12/28 10:15:59;;;;;;;;;7.00;5.00;;;;;-144.69;100.00;61360.22;6288023;22;8794;-78
2021/12/28 10:18:24;;;;;;;;;11.33;9.00;;;;;-144.69;100.00;61360.22;6287069;22;8832;-76
2021/12/28 10:20:57;;;;;;;;;19.33;6.00;;;;;-144.69;100.00;61360.22;6287930;22;8856;-77
2021/12/28 10:23:26;;;;;;;;;8.75;8.25;;;;;-144.69;100.00;61360.22;6287481;22;8722;-78
2021/12/28 10:25:57;;;;;;;;;4.75;4.75;;;;;-144.69;100.00;61360.22;6259953;22;8746;-79
2021/12/28 10:28:29;;;;;;;;;9.75;7.50;;;;;-144.69;100.00;61360.22;6260006;22;8734;-77
2021/12/28 10:30:58;;;;;;;;;16.25;9.50;;;;;-144.69;100.00;61360.22;6259815;22;8751;-76
2021/12/28 10:33:26;;;;;;;;;9.50;6.50;;;;;-144.69;100.00;61360.22;6287734;22;8749;-77
2021/12/28 10:35:58;;;;;;;;;8.75;6.00;;;;;-144.69;100.00;61360.22;6286715;22;8833;-75
2021/12/28 10:38:28;;;;;;;;;17.50;10.75;;;;;-144.69;100.00;61360.22;6287174;22;8755;-77
2021/12/28 10:40:58;;;;;;;;;8.50;8.50;;;;;-144.69;100.00;61360.22;6287499;22;8827;-77
2021/12/28 10:43:26;;;;;;;;;9.00;6.75;;;;;-144.69;100.00;61360.22;6287727;22;8808;-77
2021/12/28 10:46:00;;;;;;;;;16.00;12.75;;;;;-144.69;100.00;61360.22;6287626;22;8742;-76
2021/12/28 10:48:33;;;;;;;;;9.00;7.25;;;;;-144.69;100.00;61360.22;6287083;22;8755;-76
2021/12/28 10:51:08;;;;;;;;;12.75;6.75;;;;;-144.69;100.00;61360.22;6286924;22;8735;-76
2021/12/28 10:54:06;;;;;;;;;7.00;5.00;;;;;-144.69;100.00;61360.22;6286911;22;8812;-76
2021/12/28 10:56:35;;;;;;;;;7.00;4.50;;;;;-144.69;100.00;61360.22;6286676;22;8754;-76
2021/12/28 10:59:02;;;;;;;;;11.75;8.00;;;;;-144.69;100.00;61360.22;6287969;22;8758;-77
2021/12/28 11:01:33;;;;;;;;;9.25;6.00;;;;;-144.69;100.00;61360.22;6287704;22;8816;-72
2021/12/28 11:04:04;;;;;;;;;11.75;4.75;;;;;-144.69;100.00;61360.22;6287720;22;8718;-71
2021/12/28 11:06:32;;;;;;;;;11.75;5.50;;;;;-144.69;100.00;61360.22;6259613;22;8758;-71
2021/12/28 11:09:05;;;;;;;;;13.50;7.75;;;;;-144.69;100.00;61360.22;6286500;22;8824;-74
2021/12/28 11:11:32;;;;;;;;;12.50;6.75;;;;;-144.69;100.00;61360.22;6287440;22;8739;-75
2021/12/28 11:14:01;;;;;;;;;8.50;5.00;;;;;-144.69;100.00;61360.22;6287391;22;8723;-73
2021/12/28 11:16:29;;;;;;;;;6.00;4.75;;;;;-144.69;100.00;61360.22;6286952;22;8901;-73
2021/12/28 11:18:57;;;;;;;;;7.00;4.00;;;;;-144.69;100.00;61360.22;6287150;22;8770;-74
2021/12/28 11:21:30;;;;;;;;;10.25;5.25;;;;;-144.69;100.00;61360.22;6287379;22;8726;-73
2021/12/28 11:24:01;;;;;;;;;9.75;6.00;;;;;-144.69;100.00;61360.22;6287331;22;8718;-73
2021/12/28 11:26:38;;;;;;;;;8.50;6.50;;;;;-144.69;100.00;61360.22;6287544;22;8754;-73
2021/12/28 11:29:13;;;;;;;;;6.50;4.00;;;;;-144.69;100.00;61360.22;6285198;22;8750;-74
2021/12/28 11:32:04;;;;;;;;;4.75;4.50;;;;;-144.69;100.00;61360.22;6287213;22;8747;-74
2021/12/28 11:34:37;;;;;;;;;7.25;6.00;;;;;-144.69;100.00;61360.22;6287093;22;8738;-75
2021/12/28 11:37:20;;;;;;;;;9.00;5.50;;;;;-144.69;100.00;61360.22;6286242;22;8858;-74
2021/12/28 11:39:49;;;;;;;;;2.75;1.00;;;;;-144.69;100.00;61360.22;6286668;22;8750;-75
2021/12/28 11:42:18;;;;;;;;;11.75;5.75;;;;;-144.69;100.00;61360.22;6259332;22;9560;-75
2021/12/28 11:44:44;;;;;;;;;3.25;3.00;;;;;-144.69;100.00;61360.22;6286954;22;8734;-74
2021/12/28 11:47:12;;;;;;;;;5.67;5.67;;;;;-144.69;100.00;61360.22;6259359;22;8754;-74
2021/12/28 11:49:40;;;;;;;;;4.75;2.25;;;;;-144.69;100.00;61360.22;6287541;22;8731;-78
2021/12/28 11:52:09;;;;;;;;;6.25;3.75;;;;;-144.69;100.00;61360.22;6287658;22;8763;-74
2021/12/28 11:54:37;;;;;;;;;6.75;1.75;;;;;-144.69;100.00;61360.22;6287129;22;8739;-76
2021/12/28 11:57:11;;;;;;;;;10.25;9.50;;;;;-144.69;100.00;61360.22;6287166;22;8762;-76
2021/12/28 11:59:39;;;;;;;;;2.25;1.00;;;;;-144.69;100.00;61360.22;6285065;22;8803;-76
2021/12/28 12:02:13;;;;;;;;;12.00;6.00;;;;;-144.69;100.00;61360.22;6287537;22;8739;-76
2021/12/28 12:04:53;;;;;;;;;14.50;8.25;;;;;-144.69;100.00;61360.22;6286619;22;8889;-76
2021/12/28 12:07:23;;;;;;;;;13.75;8.25;;;;;-144.69;100.00;61360.22;6287535;22;8739;-74
2021/12/28 12:09:48;;;;;;;;;8.25;5.00;;;;;-144.69;100.00;61360.22;6287240;22;8839;-76
2021/12/28 12:12:18;;;;;;;;;9.33;8.33;;;;;-144.69;100.00;61360.22;6287478;22;8759;-77
2021/12/28 12:15:09;;;;;;;;;13.25;9.75;;;;;-144.69;100.00;61360.22;6286541;22;26860;-75
2021/12/28 12:19:35;;;;;;;;;14.00;8.50;;;;;-144.69;100.00;61360.22;3449476;22;80810500;-75
2021/12/28 12:25:53;;;;;;;;;;;;;;;-144.69;100.00;61360.22;2;239651425;239651425;-69
2021/12/28 12:35:16;;;;;;;;;15.50;12.50;;;;;-144.69;100.00;61360.22;296339;22;239758868;-80
2021/12/28 12:45:15;;;;;;;;;33.00;5.50;;;;;-144.69;100.00;61360.22;2;260927703;260927703;-75
2021/12/28 12:54:46;;;;;;;;;2.00;2.00;;;;;-144.69;100.00;61360.22;2;261077299;261077299;-75
2021/12/28 13:04:47;;;;;;;;;7.50;2.00;;;;;-144.69;100.00;61360.22;2;261078628;261078628;-76
2021/12/28 13:14:01;;;;;;;;;23.00;8.00;;;;;-144.69;100.00;61360.22;2;261076512;261076512;-76
2021/12/28 13:24:05;;;;;;;;;15.00;3.50;;;;;-144.69;100.00;61360.22;2;261079960;261079960;-75
2021/12/28 13:26:50;;;;;;;;;20.67;11.67;;;;;-144.69;100.00;61360.22;1324601;22;114222426;-75
2021/12/28 13:29:24;;;;;;;;;16.25;8.50;;;;;-144.69;100.00;61360.22;6258702;22;9606;-78
2021/12/28 13:31:51;;;;;;;;;12.00;8.50;;;;;-144.69;100.00;61360.22;6258905;22;8685;-76
2021/12/28 13:34:17;;;;;;;;;8.25;8.25;;;;;-144.69;100.00;61360.22;6256623;22;8757;-77
2021/12/28 13:36:53;;;;;;;;;11.25;8.50;;;;;-144.69;100.00;61360.22;6259688;22;8686;-77
2021/12/28 13:39:20;;;;;;;;;9.75;6.75;;;;;-144.69;100.00;61360.22;6260617;22;8775;-79
2021/12/28 13:41:53;;;;;;;;;11.50;4.75;;;;;-144.69;100.00;61360.22;6257998;22;8721;-77
2021/12/28 13:44:20;;;;;;;;;16.75;8.75;;;;;-144.69;100.00;61360.22;6257431;22;8775;-78
2021/12/28 13:46:45;;;;;;;;;16.50;12.50;;;;;-144.69;100.00;61360.22;6257426;22;8740;-77
2021/12/28 13:49:14;;;;;;;;;9.33;5.33;;;;;-144.69;100.00;61360.22;6257383;22;8740;-76
2021/12/28 13:51:41;;;;;;;;;7.75;4.75;;;;;-144.69;100.00;61360.22;6257091;22;8744;-75
2021/12/28 13:54:07;;;;;;;;;10.25;8.25;;;;;-144.69;100.00;61360.22;6256629;22;8737;-76
2021/12/28 13:56:39;;;;;;;;;13.00;10.00;;;;;-144.69;100.00;61360.22;6257010;22;9618;-75
2021/12/28 13:59:08;;;;;;;;;8.25;7.00;;;;;-144.69;100.00;61360.22;6256356;22;8729;-73
2021/12/28 14:01:39;;;;;;;;;13.50;9.25;;;;;-144.69;100.00;61360.22;6257030;22;8725;-81
2021/12/28 14:04:19;;;;;;;;;16.75;8.75;;;;;-144.69;100.00;61360.22;6257856;22;8851;-78
2021/12/28 14:06:51;;;;;;;;;3.75;1.25;;;;;-144.69;100.00;61360.22;6257091;22;8740;-82
2021/12/28 14:09:23;;;;;;;;;11.50;5.75;;;;;-144.69;100.00;61360.22;6256733;22;8745;-83
2021/12/28 18:03:44;;;;;;;;;4.00;4.00;;;;;-144.69;100.00;61360.22;3;117153350;121589544;-71
2021/12/28 18:10:25;;;;;;;;;12.00;3.50;;;;;-144.69;100.00;61360.22;3;117063471;130555783;-71
2021/12/28 18:17:14;;;;;;;;;0.00;0.00;;;;;-144.69;100.00;61360.22;3;130565832;139558685;-72
2021/12/28 18:24:17;;;;;;;;;0.00;0.00;;;;;-144.69;100.00;61360.22;3;130556530;139567331;-70
2021/12/28 18:31:06;;;;;;;;;;;;;;;-144.69;100.00;61360.22;3;117050920;130553296;-73
2021/12/28 18:37:45;;;;;;;;;15.00;4.00;;;;;-144.69;100.00;61360.22;3;117063666;130555954;-71
2021/12/28 18:44:34;;;;;;;;;4.00;4.00;;;;;-144.69;100.00;61360.22;3;130562242;139558305;-72
2021/12/28 18:51:37;;;;;;;;;4.50;4.50;;;;;-144.69;100.00;61360.22;3;130553335;139568182;-74
2021/12/28 18:58:26;;;;;;;;;10.00;6.00;;;;;-144.69;100.00;61360.22;3;117050498;130555870;-74
2021/12/28 19:05:05;;;;;;;;;2.00;2.00;;;;;-144.69;100.00;61360.22;3;117063803;130556205;-72
2021/12/28 19:11:54;;;;;;;;;11.50;3.50;;;;;-144.69;100.00;61360.22;3;130563247;139558856;-72
2021/12/28 19:18:57;;;;;;;;;1.00;1.00;;;;;-144.69;100.00;61360.22;3;130554534;139567151;-71
2021/12/28 19:25:45;;;;;;;;;6.00;6.00;;;;;-144.69;100.00;61360.22;3;117049154;130555522;-72
2021/12/28 19:32:25;;;;;;;;;2.00;2.00;;;;;-144.69;100.00;61360.22;3;117065368;130555973;-73
2021/12/28 19:39:15;;;;;;;;;0.00;0.00;;;;;-144.69;100.00;61360.22;3;130566252;139558549;-73
2021/12/28 19:46:17;;;;;;;;;3.00;3.00;;;;;-144.69;100.00;61360.22;3;130556207;139568090;-70
2021/12/28 19:53:08;;;;;;;;;4.00;3.00;;;;;-144.69;100.00;61360.22;3;117048862;130553747;-72
2021/12/28 19:59:47;;;;;;;;;1.00;1.00;;;;;-144.69;100.00;61360.22;3;117064099;130554560;-72
2021/12/28 20:06:36;;;;;;;;;2.50;2.50;;;;;-144.69;100.00;61360.22;3;130565650;139558904;-72
2021/12/28 20:13:38;;;;;;;;;1.50;1.50;;;;;-144.69;100.00;61360.22;3;130553499;139569408;-70
2021/12/28 20:20:29;;;;;;;;;3.00;3.00;;;;;-144.69;100.00;61360.22;3;117048340;130555232;-72
2021/12/28 20:27:09;;;;;;;;;0.00;0.00;;;;;-144.69;100.00;61360.22;3;117063443;130556460;-72
2021/12/28 20:33:57;;;;;;;;;0.00;0.00;;;;;-144.69;100.00;61360.22;3;130563312;139558549;-73
2021/12/28 20:41:03;;;;;;;;;0.00;0.00;;;;;-144.69;100.00;61360.22;3;130555994;139568869;-72
2021/12/28 20:47:51;;;;;;;;;8.00;6.00;;;;;-144.69;100.00;61360.22;3;117049984;130556064;-73
2021/12/28 20:54:30;;;;;;;;;0.50;0.50;;;;;-144.69;100.00;61360.22;3;117064887;130557383;-72
2021/12/28 21:01:19;;;;;;;;;1.00;1.00;;;;;-144.69;100.00;61360.22;3;130564815;139557536;-73
2021/12/28 21:08:20;;;;;;;;;3.00;3.00;;;;;-144.69;100.00;61360.22;3;130554955;139566696;-73
2021/12/28 21:15:09;;;;;;;;;4.00;3.00;;;;;-144.69;100.00;61360.22;3;117048628;130554859;-72
2021/12/28 21:21:48;;;;;;;;;0.00;0.00;;;;;-144.69;100.00;61360.22;3;117066196;130555096;-71
2021/12/28 21:28:37;;;;;;;;;1.00;1.00;;;;;-144.69;100.00;61360.22;3;130563887;139557736;-73
2021/12/28 21:35:38;;;;;;;;;1.50;1.50;;;;;-144.69;100.00;61360.22;3;130555862;139567738;-72
2021/12/28 21:42:27;;;;;;;;;;;;;;;-144.69;100.00;61360.22;3;117049993;130555962;-73
2021/12/28 21:49:06;;;;;;;;;6.50;6.50;;;;;-144.69;100.00;61360.22;3;117063415;130555716;-72
2021/12/28 21:55:54;;;;;;;;;15.50;7.00;;;;;-144.69;100.00;61360.22;3;130564874;139558162;-72
2021/12/28 22:02:57;;;;;;;;;1.50;1.50;;;;;-144.69;100.00;61360.22;3;130555391;139567700;-72
2021/12/28 22:09:45;;;;;;;;;3.00;3.00;;;;;-144.69;100.00;61360.22;3;117050205;130554097;-72
2021/12/28 22:16:25;;;;;;;;;4.00;4.00;;;;;-144.69;100.00;61360.22;3;117065751;130556078;-74
